createdAt,value
2023-03-26T00:00:50.476Z,1.90
2023-03-26T00:03:21.359Z,2.55
2023-03-26T00:06:04.704Z,1.60
2023-03-26T00:08:34.809Z,1.90
2023-03-26T00:11:05.157Z,1.85
2023-03-26T00:13:35.493Z,4.38
2023-03-26T00:16:06.656Z,2.10
2023-03-26T00:18:38.131Z,1.15
2023-03-26T00:21:13.320Z,3.35
2023-03-26T00:23:43.447Z,3.80
2023-03-26T00:26:14.224Z,1.60
2023-03-26T00:28:45.609Z,2.33
2023-03-26T00:31:17.333Z,1.25
2023-03-26T00:33:47.891Z,2.80
2023-03-26T00:36:20.630Z,2.33
2023-03-26T00:38:53.078Z,3.60
2023-03-26T00:41:31.084Z,4.47
2023-03-26T00:44:02.696Z,4.30
2023-03-26T00:46:33.888Z,4.25
2023-03-26T00:49:04.474Z,3.50
2023-03-26T00:51:39.534Z,3.35
2023-03-26T00:54:11.171Z,2.60
2023-03-26T00:56:41.539Z,3.90
2023-03-26T00:59:12.047Z,8.95
2023-03-26T01:01:42.453Z,3.63
2023-03-26T01:04:31.201Z,2.60
2023-03-26T01:07:06.799Z,5.55
2023-03-26T01:09:42.973Z,3.55
2023-03-26T01:12:17.210Z,2.53
2023-03-26T01:14:50.581Z,4.65
2023-03-26T01:17:22.145Z,4.95
2023-03-26T01:19:57.172Z,3.08
2023-03-26T01:22:30.453Z,3.92
2023-03-26T01:25:03.800Z,5.10
2023-03-26T01:27:41.685Z,4.78
2023-03-26T01:30:21.111Z,3.83
2023-03-26T01:33:01.769Z,6.72
2023-03-26T01:35:41.581Z,5.78
2023-03-26T01:38:25.682Z,4.63
2023-03-26T01:41:03.605Z,5.00
2023-03-26T01:43:39.696Z,5.75
2023-03-26T01:46:12.795Z,4.10
2023-03-26T01:48:45.750Z,9.60
2023-03-26T01:51:17.617Z,4.30
2023-03-26T01:53:50.678Z,4.18
2023-03-26T01:56:29.374Z,5.75
2023-03-26T01:59:18.073Z,4.82
2023-03-26T02:01:56.030Z,3.72
2023-03-26T02:04:33.418Z,2.65
2023-03-26T02:07:09.366Z,1.58
2023-03-26T02:09:46.896Z,6.60
2023-03-26T02:12:20.557Z,5.07
2023-03-26T02:14:51.151Z,2.87
2023-03-26T02:17:24.520Z,5.10
2023-03-26T02:19:54.862Z,6.97
2023-03-26T02:22:30.148Z,4.93
2023-03-26T02:25:02.444Z,2.45
2023-03-26T02:27:35.156Z,6.28
2023-03-26T02:30:05.634Z,7.30
2023-03-26T02:32:36.026Z,7.43
2023-03-26T02:35:07.584Z,2.75
2023-03-26T02:37:38.428Z,8.23
2023-03-26T02:40:17.670Z,1.52
2023-03-26T02:42:52.373Z,2.92
2023-03-26T02:45:23.017Z,9.13
2023-03-26T02:48:08.800Z,4.20
2023-03-26T02:50:54.882Z,4.78
2023-03-26T02:53:43.342Z,2.00
2023-03-26T02:56:30.761Z,4.45
2023-03-26T02:59:16.541Z,2.58
2023-03-26T03:01:49.791Z,7.03
2023-03-26T03:04:22.463Z,3.78
2023-03-26T03:06:57.749Z,7.88
2023-03-26T03:09:28.919Z,3.75
2023-03-26T03:12:34.025Z,6.78
2023-03-26T03:15:07.324Z,3.40
2023-03-26T03:17:37.530Z,3.45
2023-03-26T03:20:09.536Z,1.88
2023-03-26T03:22:41.371Z,4.32
2023-03-26T03:25:14.558Z,3.03
2023-03-26T03:27:45.098Z,4.65
2023-03-26T03:30:19.348Z,5.45
2023-03-26T03:32:49.796Z,2.78
2023-03-26T03:35:24.504Z,6.68
2023-03-26T03:37:59.278Z,5.32
2023-03-26T03:40:31.055Z,3.05
2023-03-26T03:43:01.355Z,5.70
2023-03-26T03:45:44.743Z,6.22
2023-03-26T03:48:33.542Z,4.22
2023-03-26T03:51:03.626Z,4.88
2023-03-26T03:53:43.195Z,2.65
2023-03-26T03:56:14.892Z,10.77
2023-03-26T03:59:08.993Z,6.82
2023-03-26T04:01:43.292Z,11.07
2023-03-26T04:04:28.408Z,2.83
2023-03-26T04:07:03.037Z,2.15
2023-03-26T04:09:40.556Z,6.88
2023-03-26T04:12:17.827Z,12.05
2023-03-26T04:14:55.082Z,4.82
2023-03-26T04:17:30.696Z,5.28
2023-03-26T04:20:07.189Z,7.68
2023-03-26T04:22:37.621Z,5.93
2023-03-26T04:25:10.889Z,4.53
2023-03-26T04:27:48.772Z,6.50
2023-03-26T04:30:45.072Z,4.88
2023-03-26T04:33:39.288Z,15.77
2023-03-26T04:36:11.818Z,4.18
2023-03-26T04:38:45.139Z,11.27
2023-03-26T04:41:17.708Z,7.22
2023-03-26T04:43:57.335Z,9.95
2023-03-26T04:46:49.461Z,5.70
2023-03-26T04:49:27.815Z,5.30
2023-03-26T04:51:58.352Z,4.28
2023-03-26T04:54:48.313Z,5.10
2023-03-26T04:57:26.003Z,2.25
2023-03-26T05:00:20.407Z,5.22
2023-03-26T05:03:01.780Z,2.05
2023-03-26T05:05:34.799Z,5.35
2023-03-26T05:08:08.559Z,7.07
2023-03-26T05:10:39.394Z,4.78
2023-03-26T05:13:15.659Z,5.32
2023-03-26T05:15:52.760Z,7.60
2023-03-26T05:18:42.579Z,3.80
2023-03-26T05:21:15.603Z,3.67
2023-03-26T05:23:46.071Z,2.65
2023-03-26T05:26:22.172Z,3.67
2023-03-26T05:28:52.933Z,5.78
2023-03-26T05:31:27.220Z,1.48
2023-03-26T05:34:00.619Z,6.50
2023-03-26T05:36:33.888Z,5.53
2023-03-26T05:42:23.923Z,4.10
2023-03-26T05:45:15.702Z,5.40
2023-03-26T05:47:46.255Z,4.18
2023-03-26T05:50:17.301Z,2.80
2023-03-26T05:52:50.170Z,3.17
2023-03-26T05:55:45.891Z,2.97
2023-03-26T05:58:39.454Z,1.52
2023-03-26T06:01:29.516Z,10.13
2023-03-26T06:04:20.213Z,3.78
2023-03-26T06:07:04.055Z,6.35
2023-03-26T06:09:37.808Z,4.13
2023-03-26T06:12:08.321Z,5.57
2023-03-26T06:14:38.957Z,6.72
2023-03-26T06:17:16.796Z,5.03
2023-03-26T06:20:09.435Z,2.70
2023-03-26T06:22:45.564Z,3.85
2023-03-26T06:25:48.842Z,6.65
2023-03-26T06:28:45.464Z,7.63
2023-03-26T06:31:37.218Z,5.10
2023-03-26T06:34:26.027Z,3.67
2023-03-26T06:36:56.943Z,4.15
2023-03-26T06:39:27.502Z,2.22
2023-03-26T06:42:17.647Z,5.05
2023-03-26T06:45:06.376Z,3.72
2023-03-26T06:47:55.063Z,5.72
2023-03-26T06:50:51.292Z,3.85
2023-03-26T06:53:34.844Z,3.75
2023-03-26T06:56:18.861Z,5.90
2023-03-26T06:59:04.356Z,5.03
2023-03-26T07:01:34.827Z,5.55
2023-03-26T07:04:23.786Z,3.88
2023-03-26T07:07:13.510Z,2.35
2023-03-26T07:10:02.108Z,5.68
2023-03-26T07:12:44.467Z,1.73
2023-03-26T07:15:35.891Z,6.40
2023-03-26T07:18:24.328Z,8.18
2023-03-26T07:20:56.342Z,4.53
2023-03-26T07:23:28.126Z,3.78
2023-03-26T07:26:26.013Z,2.42
2023-03-26T07:29:27.025Z,7.68
2023-03-26T07:32:28.220Z,5.93
2023-03-26T07:35:20.332Z,4.35
2023-03-26T07:38:26.469Z,3.92
2023-03-26T07:41:16.166Z,0.90
2023-03-26T07:44:17.532Z,3.78
2023-03-26T07:47:22.445Z,4.20
2023-03-26T07:50:20.968Z,1.73
2023-03-26T07:53:08.764Z,5.25
2023-03-26T07:56:04.584Z,4.65
2023-03-26T07:59:04.234Z,3.13
2023-03-26T08:02:04.858Z,2.25
2023-03-26T08:05:10.664Z,3.03
2023-03-26T08:08:21.575Z,4.50
2023-03-26T08:11:23.333Z,5.97
2023-03-26T08:14:24.790Z,5.93
2023-03-26T08:16:59.043Z,4.05
2023-03-26T08:19:44.928Z,2.38
2023-03-26T08:22:20.892Z,7.00
2023-03-26T08:25:19.552Z,4.75
2023-03-26T08:27:57.275Z,2.88
2023-03-26T08:30:28.996Z,4.28
2023-03-26T08:33:01.279Z,3.28
2023-03-26T08:35:32.446Z,3.50
2023-03-26T08:38:02.822Z,4.90
2023-03-26T08:40:58.444Z,4.57
2023-03-26T08:44:03.527Z,4.88
2023-03-26T08:47:06.446Z,5.55
2023-03-26T08:50:13.661Z,4.00
2023-03-26T08:53:12.815Z,4.45
2023-03-26T08:55:56.606Z,1.67
2023-03-26T08:59:03.114Z,4.70
2023-03-26T09:02:10.041Z,3.42
2023-03-26T09:05:16.066Z,7.95
2023-03-26T09:08:07.761Z,3.97
2023-03-26T09:11:07.343Z,5.72
2023-03-26T09:14:05.206Z,2.95
2023-03-26T09:17:09.236Z,2.08
2023-03-26T09:20:11.131Z,5.35
2023-03-26T09:23:14.970Z,5.63
2023-03-26T09:26:12.134Z,7.10
2023-03-26T09:29:17.464Z,11.88
2023-03-26T09:32:19.895Z,4.85
2023-03-26T09:35:13.629Z,4.35
2023-03-26T09:37:59.911Z,8.35
2023-03-26T09:40:42.584Z,4.30
2023-03-26T09:43:53.141Z,7.15
2023-03-26T09:46:35.293Z,9.30
2023-03-26T09:49:21.651Z,8.38
2023-03-26T09:52:09.336Z,14.02
2023-03-26T09:55:19.766Z,4.25
2023-03-26T09:58:07.522Z,6.07
2023-03-26T10:00:47.229Z,15.20
2023-03-26T10:03:38.925Z,4.80
2023-03-26T10:06:29.384Z,9.35
2023-03-26T10:09:22.522Z,6.63
2023-03-26T10:12:07.247Z,8.23
2023-03-26T10:17:36.482Z,5.82
2023-03-26T10:20:27.773Z,8.38
2023-03-26T10:23:10.473Z,7.60
2023-03-26T10:25:57.129Z,6.30
2023-03-26T10:28:40.847Z,6.13
2023-03-26T10:31:28.497Z,5.27
2023-03-26T10:34:27.996Z,9.80
2023-03-26T10:37:09.625Z,6.07
2023-03-26T10:40:10.195Z,794.55
2023-03-26T10:43:06.891Z,1836.90
2023-03-26T10:46:16.233Z,1291.80
2023-03-26T10:49:01.122Z,329.88
2023-03-26T10:51:51.559Z,19.90
2023-03-26T10:54:35.569Z,16.23
2023-03-26T10:57:10.945Z,20.48
2023-03-26T10:59:41.276Z,5.50
2023-03-26T11:02:30.607Z,8.20
2023-03-26T11:05:26.930Z,5.00
2023-03-26T11:08:04.816Z,4.75
2023-03-26T11:10:44.697Z,8.93
2023-03-26T11:13:22.938Z,2.78
2023-03-26T11:15:58.660Z,7.50
2023-03-26T11:18:38.620Z,3.08
2023-03-26T11:21:18.973Z,2.55
2023-03-26T11:24:04.819Z,5.90
2023-03-26T11:26:45.496Z,5.80
2023-03-26T11:29:33.676Z,3.75
2023-03-26T11:32:08.999Z,3.72
2023-03-26T11:34:43.652Z,4.07
2023-03-26T11:37:22.646Z,4.22
2023-03-26T11:39:59.419Z,2.55
2023-03-26T11:42:29.956Z,1.67
2023-03-26T11:45:03.701Z,3.90
2023-03-26T11:47:41.797Z,1.45
2023-03-26T11:50:19.388Z,2.45
2023-03-26T11:52:49.789Z,1.50
2023-03-26T11:55:23.955Z,3.08
2023-03-26T11:57:58.899Z,2.83
2023-03-26T12:00:31.451Z,2.70
2023-03-26T12:03:03.207Z,1.65
2023-03-26T12:05:51.747Z,3.15
2023-03-26T12:08:24.378Z,2.95
2023-03-26T12:11:10.471Z,5.30
2023-03-26T12:13:43.327Z,3.03
2023-03-26T12:16:18.406Z,4.55
2023-03-26T12:18:59.998Z,7.70
2023-03-26T12:21:30.638Z,6.88
2023-03-26T12:24:03.790Z,8.95
2023-03-26T12:26:45.833Z,4.63
2023-03-26T12:29:17.745Z,3.92
2023-03-26T12:31:54.252Z,2.55
2023-03-26T12:34:29.490Z,4.25
2023-03-26T12:37:02.128Z,2.65
2023-03-26T12:40:08.705Z,4.13
2023-03-26T12:44:46.085Z,3.05
2023-03-26T12:45:30.968Z,4.88
2023-03-26T12:48:03.841Z,4.22
2023-03-26T12:50:48.403Z,1.42
2023-03-26T12:53:41.900Z,2.20
2023-03-26T12:56:22.133Z,2.88
2023-03-26T12:59:09.205Z,3.00
2023-03-26T13:01:50.869Z,1.42
2023-03-26T13:05:05.015Z,4.40
2023-03-26T13:07:52.179Z,1.85
2023-03-26T13:10:44.434Z,1.45
2023-03-26T13:13:40.957Z,2.13
2023-03-26T13:16:24.623Z,0.93
2023-03-26T13:18:58.957Z,2.05
2023-03-26T13:21:37.212Z,2.83
2023-03-26T13:24:17.040Z,3.13
2023-03-26T13:27:02.143Z,1.38
2023-03-26T13:29:39.819Z,1.27
2023-03-26T13:32:21.550Z,1.15
2023-03-26T13:35:11.715Z,2.22
2023-03-26T13:37:49.034Z,1.02
2023-03-26T13:40:28.151Z,1.85
2023-03-26T13:43:24.960Z,4.05
2023-03-26T13:46:02.159Z,2.38
2023-03-26T13:48:39.205Z,1.48
2023-03-26T13:51:15.802Z,3.25
2023-03-26T13:53:51.119Z,1.90
2023-03-26T13:56:26.576Z,3.00
2023-03-26T13:59:03.514Z,2.05
2023-03-26T14:01:41.252Z,2.47
2023-03-26T14:04:19.926Z,2.40
2023-03-26T14:06:54.217Z,1.63
2023-03-26T14:12:22.037Z,1.98
2023-03-26T14:14:56.779Z,1.08
2023-03-26T14:17:30.986Z,2.28
2023-03-26T14:20:37.587Z,1.83
2023-03-26T14:23:27.632Z,2.58
2023-03-26T14:26:11.297Z,2.42
2023-03-26T14:29:16.717Z,4.37
2023-03-26T14:31:52.906Z,1.67
2023-03-26T14:34:36.318Z,0.45
2023-03-26T14:37:27.899Z,1.05
2023-03-26T14:40:23.978Z,1.98
2023-03-26T14:43:00.697Z,2.47
2023-03-26T14:45:58.838Z,8.70
2023-03-26T14:49:01.450Z,1.58
2023-03-26T14:51:50.935Z,3.33
2023-03-26T14:54:25.727Z,0.43
2023-03-26T14:57:18.830Z,1.77
2023-03-26T15:00:16.027Z,2.05
2023-03-26T15:03:19.219Z,1.17
2023-03-26T15:06:11.036Z,0.65
2023-03-26T15:09:10.148Z,1.55
2023-03-26T15:11:48.756Z,5.18
2023-03-26T15:14:56.360Z,5.95
2023-03-26T15:17:59.635Z,2.65
2023-03-26T15:21:07.002Z,1.13
2023-03-26T15:24:06.449Z,0.70
2023-03-26T15:27:03.958Z,1.75
2023-03-26T15:30:12.326Z,1.13
2023-03-26T15:33:24.402Z,2.55
2023-03-26T15:36:21.602Z,1.50
2023-03-26T15:39:33.159Z,0.90
2023-03-26T15:42:14.192Z,1.20
2023-03-26T15:44:57.739Z,1.50
2023-03-26T15:47:52.759Z,1.90
2023-03-26T15:50:37.716Z,2.15
2023-03-26T15:53:23.581Z,1.20
2023-03-26T15:56:09.076Z,2.97
2023-03-26T15:58:50.175Z,2.15
2023-03-26T16:01:34.314Z,1.52
2023-03-26T16:04:18.708Z,1.95
2023-03-26T16:09:43.899Z,2.58
2023-03-26T16:12:36.929Z,0.85
2023-03-26T16:15:29.728Z,0.82
2023-03-26T16:18:29.185Z,2.00
2023-03-26T16:21:30.894Z,1.23
2023-03-26T16:24:25.903Z,1.23
2023-03-26T16:27:10.717Z,1.50
2023-03-26T16:30:17.297Z,3.45
2023-03-26T16:32:55.421Z,1.17
2023-03-26T16:35:49.504Z,2.10
2023-03-26T16:38:21.701Z,1.45
2023-03-26T16:41:02.825Z,0.98
2023-03-26T16:43:53.156Z,2.38
2023-03-26T16:46:32.246Z,3.53
2023-03-26T16:49:11.048Z,1.80
2023-03-26T16:52:02.398Z,2.90
2023-03-26T16:54:42.475Z,2.72
2023-03-26T16:57:23.446Z,0.55
2023-03-26T17:00:23.685Z,3.53
2023-03-26T17:03:01.112Z,2.63
2023-03-26T17:05:39.328Z,2.10
2023-03-26T17:08:35.520Z,2.45
2023-03-26T17:11:19.593Z,2.55
2023-03-26T17:14:01.126Z,0.95
2023-03-26T17:16:36.737Z,8.63
2023-03-26T17:19:16.894Z,4.32
2023-03-26T17:21:58.499Z,1.83
2023-03-26T17:24:42.337Z,2.58
2023-03-26T17:27:47.330Z,4.55
2023-03-26T17:30:52.059Z,3.13
2023-03-26T17:33:31.111Z,0.80
2023-03-26T17:36:25.099Z,2.20
2023-03-26T17:39:23.682Z,2.60
2023-03-26T17:41:59.113Z,2.13
2023-03-26T17:44:47.348Z,2.53
2023-03-26T17:47:30.156Z,1.52
2023-03-26T17:50:05.831Z,2.13
2023-03-26T17:52:50.114Z,1.42
2023-03-26T17:55:23.162Z,1.98
2023-03-26T17:57:59.095Z,3.78
2023-03-26T18:00:32.898Z,2.20
2023-03-26T18:03:08.791Z,5.07
2023-03-26T18:05:42.456Z,3.78
2023-03-26T18:08:54.336Z,4.50
2023-03-26T18:11:46.394Z,2.65
2023-03-26T18:14:48.062Z,1.80
2023-03-26T18:17:19.071Z,0.70
2023-03-26T18:19:51.971Z,4.50
2023-03-26T18:22:27.801Z,4.05
2023-03-26T18:25:00.728Z,2.65
2023-03-26T18:27:38.932Z,1.67
2023-03-26T18:30:22.048Z,2.33
2023-03-26T18:33:00.147Z,2.38
2023-03-26T18:35:40.231Z,3.80
2023-03-26T18:38:17.089Z,1.13
2023-03-26T18:40:48.498Z,1.13
2023-03-26T18:43:34.384Z,0.20
2023-03-26T18:46:08.676Z,0.83
2023-03-26T18:48:39.566Z,0.52
2023-03-26T18:51:10.903Z,0.30
2023-03-26T18:53:43.827Z,2.55
2023-03-26T18:56:31.634Z,0.30
2023-03-26T18:59:03.563Z,1.65
2023-03-26T19:01:38.688Z,1.77
2023-03-26T19:04:10.674Z,0.10
2023-03-26T19:06:44.974Z,1.40
2023-03-26T19:12:06.734Z,2.45
2023-03-26T19:14:37.362Z,2.13
2023-03-26T19:17:10.807Z,0.40
2023-03-26T19:19:41.443Z,2.17
2023-03-26T19:22:14.325Z,1.77
2023-03-26T19:24:45.202Z,1.45
2023-03-26T19:27:16.804Z,0.30
2023-03-26T19:29:47.477Z,0.20
2023-03-26T19:32:23.837Z,0.45
2023-03-26T19:34:55.199Z,0.68
2023-03-26T19:37:28.743Z,0.10
2023-03-26T19:40:07.367Z,0.50
2023-03-26T19:42:43.874Z,0.55
2023-03-26T19:45:20.520Z,0.25
2023-03-26T19:48:03.989Z,0.50
2023-03-26T19:50:46.296Z,1.33
2023-03-26T19:53:22.191Z,0.40
2023-03-26T19:55:59.979Z,2.45
2023-03-26T19:58:30.850Z,0.85
2023-03-26T20:01:01.481Z,1.30
2023-03-26T20:03:42.317Z,1.13
2023-03-26T20:06:15.291Z,0.65
2023-03-26T20:08:46.658Z,0.47
2023-03-26T20:11:19.442Z,1.00
2023-03-26T20:13:50.038Z,0.45
2023-03-26T20:16:25.981Z,1.85
2023-03-26T20:19:02.507Z,1.23
2023-03-26T20:21:34.950Z,0.60
2023-03-26T20:24:05.414Z,1.60
2023-03-26T20:26:35.711Z,0.60
2023-03-26T20:29:06.195Z,0.73
2023-03-26T20:31:37.717Z,2.28
2023-03-26T20:34:17.584Z,4.30
2023-03-26T20:36:54.275Z,0.85
2023-03-26T20:39:25.165Z,0.45
2023-03-26T20:41:57.327Z,3.65
2023-03-26T20:44:28.187Z,0.63
2023-03-26T20:46:59.143Z,0.88
2023-03-26T20:49:32.513Z,1.63
2023-03-26T20:52:02.834Z,0.60
2023-03-26T20:54:33.322Z,0.38
2023-03-26T20:57:03.740Z,0.30
2023-03-26T20:59:34.714Z,2.17
2023-03-26T21:02:05.313Z,0.50
2023-03-26T21:04:38.000Z,0.50
2023-03-26T21:07:17.768Z,1.05
2023-03-26T21:09:49.484Z,0.57
2023-03-26T21:12:28.265Z,2.28
2023-03-26T21:14:58.983Z,1.73
2023-03-26T21:17:30.257Z,0.73
2023-03-26T21:20:12.003Z,2.40
2023-03-26T21:22:47.128Z,3.03
2023-03-26T21:25:27.953Z,0.77
2023-03-26T21:28:09.559Z,0.68
2023-03-26T21:30:40.392Z,0.57
2023-03-26T21:33:10.830Z,1.73
2023-03-26T21:35:44.941Z,1.50
2023-03-26T21:38:15.735Z,0.60
2023-03-26T21:40:49.741Z,0.80
2023-03-26T21:43:29.071Z,0.50
2023-03-26T21:46:01.286Z,2.10
2023-03-26T21:48:32.359Z,1.27
2023-03-26T21:51:07.075Z,1.85
2023-03-26T21:53:38.336Z,0.52
2023-03-26T21:56:21.106Z,0.85
2023-03-26T21:58:55.639Z,3.22
2023-03-26T22:01:34.638Z,1.10
2023-03-26T22:04:10.673Z,0.60
2023-03-26T22:06:49.863Z,0.43
2023-03-26T22:09:26.512Z,2.08
2023-03-26T22:12:05.927Z,0.80
2023-03-26T22:14:37.416Z,5.45
2023-03-26T22:17:08.115Z,2.28
2023-03-26T22:19:38.644Z,1.77
2023-03-26T22:22:11.540Z,1.33
2023-03-26T22:24:42.626Z,1.63
2023-03-26T22:27:13.291Z,1.05
2023-03-26T22:29:43.396Z,1.70
2023-03-26T22:32:13.416Z,1.00
2023-03-26T22:34:45.108Z,1.17
2023-03-26T22:37:17.869Z,2.78
2023-03-26T22:39:48.608Z,0.93
2023-03-26T22:42:19.626Z,1.33
2023-03-26T22:44:49.985Z,0.77
2023-03-26T22:47:22.721Z,0.73
2023-03-26T22:49:53.182Z,0.50
2023-03-26T22:52:25.835Z,1.60
2023-03-26T22:54:57.247Z,2.22
2023-03-26T22:57:28.052Z,0.63
2023-03-26T23:00:07.358Z,1.42
2023-03-26T23:02:37.670Z,0.90
2023-03-26T23:05:08.098Z,0.60
2023-03-26T23:07:42.588Z,1.88
2023-03-26T23:10:13.983Z,0.80
2023-03-26T23:12:44.159Z,0.77
2023-03-26T23:15:14.804Z,0.68
2023-03-26T23:17:45.481Z,5.35
2023-03-26T23:20:25.461Z,1.08
2023-03-26T23:22:58.006Z,0.77
2023-03-26T23:25:28.605Z,1.10
2023-03-26T23:27:58.898Z,1.10
2023-03-26T23:30:29.150Z,1.23
2023-03-26T23:33:00.047Z,1.75
2023-03-26T23:35:30.701Z,0.95
2023-03-26T23:38:03.353Z,2.20
2023-03-26T23:40:33.767Z,3.03
2023-03-26T23:43:04.085Z,0.82
2023-03-26T23:45:34.494Z,1.02
2023-03-26T23:48:05.150Z,1.45
2023-03-26T23:50:37.873Z,1.85
2023-03-26T23:53:10.653Z,2.38
2023-03-26T23:55:40.934Z,2.15
2023-03-26T23:58:11.183Z,1.65
